sensor_id;sensor_type;location;lat;lon;timestamp;pressure;altitude;pressure_sealevel;temperature;humidity
85191;BME280;75560;0.000;0.000;2024-01-07T16:59:33;101961.88;;;20.21;48.67
85191;BME280;75560;0.000;0.000;2024-01-07T17:01:59;101954.78;;;20.10;49.58
85191;BME280;75560;0.000;0.000;2024-01-07T17:04:25;101983.63;;;20.11;48.63
85191;BME280;75560;0.000;0.000;2024-01-07T17:06:50;101963.47;;;19.97;50.82
85191;BME280;75560;0.000;0.000;2024-01-07T17:09:15;101977.88;;;19.97;45.20
85191;BME280;75560;0.000;0.000;2024-01-07T17:11:42;101993.09;;;19.93;41.84
85191;BME280;75560;0.000;0.000;2024-01-07T17:14:08;101981.69;;;19.91;41.44
85191;BME280;75560;0.000;0.000;2024-01-07T17:16:33;101997.78;;;20.08;41.90
85191;BME280;75560;0.000;0.000;2024-01-07T17:18:59;101991.78;;;20.11;42.42
85191;BME280;75560;0.000;0.000;2024-01-07T17:21:25;101993.16;;;20.19;42.94
85191;BME280;75560;0.000;0.000;2024-01-07T17:23:51;102001.91;;;20.36;43.13
85191;BME280;75560;0.000;0.000;2024-01-07T17:26:17;102003.00;;;20.40;43.74
85191;BME280;75560;0.000;0.000;2024-01-07T17:28:44;102000.06;;;20.47;44.12
85191;BME280;75560;0.000;0.000;2024-01-07T17:31:09;101996.25;;;20.53;44.58
85191;BME280;75560;0.000;0.000;2024-01-07T17:33:35;102001.63;;;20.33;34.60
85191;BME280;75560;0.000;0.000;2024-01-07T17:36:01;102009.09;;;19.32;33.33
85191;BME280;75560;0.000;0.000;2024-01-07T17:38:26;102000.81;;;19.54;35.99
85191;BME280;75560;0.000;0.000;2024-01-07T17:40:51;101990.06;;;19.80;35.54
85191;BME280;75560;0.000;0.000;2024-01-07T17:43:17;102001.25;;;19.93;36.12
85191;BME280;75560;0.000;0.000;2024-01-07T17:45:42;102007.56;;;20.14;37.00
85191;BME280;75560;0.000;0.000;2024-01-07T17:48:08;102006.25;;;20.27;37.67
85191;BME280;75560;0.000;0.000;2024-01-07T17:50:33;102012.78;;;20.36;37.97
85191;BME280;75560;0.000;0.000;2024-01-07T17:52:59;101999.47;;;20.35;38.63
85191;BME280;75560;0.000;0.000;2024-01-07T17:55:27;102020.19;;;20.61;39.42
85191;BME280;75560;0.000;0.000;2024-01-07T17:57:54;102009.56;;;20.59;39.70
85191;BME280;75560;0.000;0.000;2024-01-07T18:00:20;102030.00;;;20.77;40.08
85191;BME280;75560;0.000;0.000;2024-01-07T18:02:47;102012.59;;;20.73;40.76
85191;BME280;75560;0.000;0.000;2024-01-07T18:05:13;102012.84;;;20.82;40.66
85191;BME280;75560;0.000;0.000;2024-01-07T18:07:38;102019.41;;;20.86;41.19
85191;BME280;75560;0.000;0.000;2024-01-07T18:10:04;102019.41;;;20.91;41.96
85191;BME280;75560;0.000;0.000;2024-01-07T18:12:32;102022.94;;;20.97;41.91
85191;BME280;75560;0.000;0.000;2024-01-07T18:14:57;101997.34;;;20.87;42.29
85191;BME280;75560;0.000;0.000;2024-01-07T18:17:22;102021.03;;;21.02;42.38
85191;BME280;75560;0.000;0.000;2024-01-07T18:19:47;102014.47;;;20.98;42.70
85191;BME280;75560;0.000;0.000;2024-01-07T18:22:13;102029.75;;;21.04;43.09
85191;BME280;75560;0.000;0.000;2024-01-07T18:24:38;64144.94;;;-143.47;100.00
85191;BME280;75560;0.000;0.000;2024-01-07T18:27:04;64144.94;;;-143.47;100.00
85191;BME280;75560;0.000;0.000;2024-01-07T18:29:29;64144.94;;;-143.47;100.00
85191;BME280;75560;0.000;0.000;2024-01-07T18:31:54;64144.94;;;-143.47;100.00
85191;BME280;75560;0.000;0.000;2024-01-07T18:34:20;64144.94;;;-143.47;100.00
85191;BME280;75560;0.000;0.000;2024-01-07T18:36:45;64144.94;;;-143.47;100.00
85191;BME280;75560;0.000;0.000;2024-01-07T18:39:11;64144.94;;;-143.47;100.00
85191;BME280;75560;0.000;0.000;2024-01-07T18:41:36;64144.94;;;-143.47;100.00
85191;BME280;75560;0.000;0.000;2024-01-07T18:44:03;64144.94;;;-143.47;100.00
85191;BME280;75560;0.000;0.000;2024-01-07T18:46:28;64144.94;;;-143.47;100.00
85191;BME280;75560;0.000;0.000;2024-01-07T18:48:54;64144.94;;;-143.47;100.00
85191;BME280;75560;0.000;0.000;2024-01-07T18:51:19;64144.94;;;-143.47;100.00
85191;BME280;75560;0.000;0.000;2024-01-07T18:53:44;64144.94;;;-143.47;100.00
85191;BME280;75560;0.000;0.000;2024-01-07T18:56:10;64144.94;;;-143.47;100.00
85191;BME280;75560;0.000;0.000;2024-01-07T18:58:35;64144.94;;;-143.47;100.00
85191;BME280;75560;0.000;0.000;2024-01-07T19:01:03;64144.94;;;-143.47;100.00
85191;BME280;75560;0.000;0.000;2024-01-07T19:03:29;64144.94;;;-143.47;100.00
85191;BME280;75560;0.000;0.000;2024-01-07T19:05:54;64144.94;;;-143.47;100.00
85191;BME280;75560;0.000;0.000;2024-01-07T19:08:20;64144.94;;;-143.47;100.00
85191;BME280;75560;0.000;0.000;2024-01-07T19:10:46;64144.94;;;-143.47;100.00
85191;BME280;75560;0.000;0.000;2024-01-07T19:13:12;64144.94;;;-143.47;100.00
85191;BME280;75560;0.000;0.000;2024-01-07T19:15:38;64144.94;;;-143.47;100.00
85191;BME280;75560;0.000;0.000;2024-01-07T19:18:05;64144.94;;;-143.47;100.00
85191;BME280;75560;0.000;0.000;2024-01-07T19:20:30;64144.94;;;-143.47;100.00
85191;BME280;75560;0.000;0.000;2024-01-07T19:22:57;64144.94;;;-143.47;100.00
85191;BME280;75560;0.000;0.000;2024-01-07T19:25:22;64144.94;;;-143.47;100.00
85191;BME280;75560;0.000;0.000;2024-01-07T19:27:47;64144.94;;;-143.47;100.00
85191;BME280;75560;0.000;0.000;2024-01-07T19:30:13;64144.94;;;-143.47;100.00
85191;BME280;75560;0.000;0.000;2024-01-07T19:32:39;64144.94;;;-143.47;100.00
85191;BME280;75560;0.000;0.000;2024-01-07T19:35:06;64144.94;;;-143.47;100.00
85191;BME280;75560;0.000;0.000;2024-01-07T19:37:31;64144.94;;;-143.47;100.00
85191;BME280;75560;0.000;0.000;2024-01-07T19:39:56;64144.94;;;-143.47;100.00
85191;BME280;75560;0.000;0.000;2024-01-07T19:42:23;64144.94;;;-143.47;100.00
85191;BME280;75560;0.000;0.000;2024-01-07T19:44:48;64144.94;;;-143.47;100.00
85191;BME280;75560;0.000;0.000;2024-01-07T19:47:13;64144.94;;;-143.47;100.00
85191;BME280;75560;0.000;0.000;2024-01-07T19:49:38;64144.94;;;-143.47;100.00
85191;BME280;75560;0.000;0.000;2024-01-07T19:52:04;64144.94;;;-143.47;100.00
85191;BME280;75560;0.000;0.000;2024-01-07T19:54:31;64144.94;;;-143.47;100.00
85191;BME280;75560;0.000;0.000;2024-01-07T19:56:56;64144.94;;;-143.47;100.00
85191;BME280;75560;0.000;0.000;2024-01-07T19:59:22;64144.94;;;-143.47;100.00
85191;BME280;75560;0.000;0.000;2024-01-07T20:01:49;64144.94;;;-143.47;100.00
85191;BME280;75560;0.000;0.000;2024-01-07T20:04:14;64144.94;;;-143.47;100.00
85191;BME280;75560;0.000;0.000;2024-01-07T20:06:40;64144.94;;;-143.47;100.00
85191;BME280;75560;0.000;0.000;2024-01-07T20:09:06;64144.94;;;-143.47;100.00
85191;BME280;75560;0.000;0.000;2024-01-07T20:11:31;64144.94;;;-143.47;100.00
85191;BME280;75560;0.000;0.000;2024-01-07T20:13:58;64144.94;;;-143.47;100.00
85191;BME280;75560;0.000;0.000;2024-01-07T20:16:23;64144.94;;;-143.47;100.00
85191;BME280;75560;0.000;0.000;2024-01-07T20:18:50;64144.94;;;-143.47;100.00
85191;BME280;75560;0.000;0.000;2024-01-07T20:21:26;64144.94;;;-143.47;100.00
85191;BME280;75560;0.000;0.000;2024-01-07T20:23:54;64144.94;;;-143.47;100.00
85191;BME280;75560;0.000;0.000;2024-01-07T20:26:20;64144.94;;;-143.47;100.00
85191;BME280;75560;0.000;0.000;2024-01-07T20:28:45;64144.94;;;-143.47;100.00
85191;BME280;75560;0.000;0.000;2024-01-07T20:31:11;64144.94;;;-143.47;100.00
85191;BME280;75560;0.000;0.000;2024-01-07T20:33:37;64144.94;;;-143.47;100.00
85191;BME280;75560;0.000;0.000;2024-01-07T20:36:04;64144.94;;;-143.47;100.00
85191;BME280;75560;0.000;0.000;2024-01-07T20:38:32;64144.94;;;-143.47;100.00
85191;BME280;75560;0.000;0.000;2024-01-07T20:40:58;64144.94;;;-143.47;100.00
85191;BME280;75560;0.000;0.000;2024-01-07T20:43:23;64144.94;;;-143.47;100.00
85191;BME280;75560;0.000;0.000;2024-01-07T20:45:48;64144.94;;;-143.47;100.00
85191;BME280;75560;0.000;0.000;2024-01-07T20:48:14;64144.94;;;-143.47;100.00
85191;BME280;75560;0.000;0.000;2024-01-07T20:50:39;64144.94;;;-143.47;100.00
85191;BME280;75560;0.000;0.000;2024-01-07T20:53:05;64144.94;;;-143.47;100.00
85191;BME280;75560;0.000;0.000;2024-01-07T20:55:30;64144.94;;;-143.47;100.00
85191;BME280;75560;0.000;0.000;2024-01-07T20:57:56;64144.94;;;-143.47;100.00
85191;BME280;75560;0.000;0.000;2024-01-07T21:00:21;64144.94;;;-143.47;100.00
85191;BME280;75560;0.000;0.000;2024-01-07T21:02:46;64144.94;;;-143.47;100.00
85191;BME280;75560;0.000;0.000;2024-01-07T21:05:13;64144.94;;;-143.47;100.00
85191;BME280;75560;0.000;0.000;2024-01-07T21:07:44;64144.94;;;-143.47;100.00
85191;BME280;75560;0.000;0.000;2024-01-07T21:10:09;64144.94;;;-143.47;100.00
85191;BME280;75560;0.000;0.000;2024-01-07T21:12:34;64144.94;;;-143.47;100.00
85191;BME280;75560;0.000;0.000;2024-01-07T21:15:00;64144.94;;;-143.47;100.00
85191;BME280;75560;0.000;0.000;2024-01-07T21:17:25;64144.94;;;-143.47;100.00
85191;BME280;75560;0.000;0.000;2024-01-07T21:19:50;64144.94;;;-143.47;100.00
85191;BME280;75560;0.000;0.000;2024-01-07T21:22:16;64144.94;;;-143.47;100.00
85191;BME280;75560;0.000;0.000;2024-01-07T21:24:43;64144.94;;;-143.47;100.00
85191;BME280;75560;0.000;0.000;2024-01-07T21:27:08;64144.94;;;-143.47;100.00
85191;BME280;75560;0.000;0.000;2024-01-07T21:29:33;64144.94;;;-143.47;100.00
85191;BME280;75560;0.000;0.000;2024-01-07T21:31:59;64144.94;;;-143.47;100.00
85191;BME280;75560;0.000;0.000;2024-01-07T21:34:24;64144.94;;;-143.47;100.00
85191;BME280;75560;0.000;0.000;2024-01-07T21:36:50;64144.94;;;-143.47;100.00
85191;BME280;75560;0.000;0.000;2024-01-07T21:39:16;64144.94;;;-143.47;100.00
85191;BME280;75560;0.000;0.000;2024-01-07T21:41:43;64144.94;;;-143.47;100.00
85191;BME280;75560;0.000;0.000;2024-01-07T21:44:10;64144.94;;;-143.47;100.00
85191;BME280;75560;0.000;0.000;2024-01-07T21:46:42;64144.94;;;-143.47;100.00
85191;BME280;75560;0.000;0.000;2024-01-07T21:49:07;64144.94;;;-143.47;100.00
85191;BME280;75560;0.000;0.000;2024-01-07T21:51:32;64144.94;;;-143.47;100.00
85191;BME280;75560;0.000;0.000;2024-01-07T21:53:59;64144.94;;;-143.47;100.00
85191;BME280;75560;0.000;0.000;2024-01-07T21:56:25;64144.94;;;-143.47;100.00
85191;BME280;75560;0.000;0.000;2024-01-07T21:58:50;64144.94;;;-143.47;100.00
85191;BME280;75560;0.000;0.000;2024-01-07T22:01:15;64144.94;;;-143.47;100.00
85191;BME280;75560;0.000;0.000;2024-01-07T22:03:41;64144.94;;;-143.47;100.00
85191;BME280;75560;0.000;0.000;2024-01-07T22:06:06;64144.94;;;-143.47;100.00
85191;BME280;75560;0.000;0.000;2024-01-07T22:08:31;64144.94;;;-143.47;100.00
85191;BME280;75560;0.000;0.000;2024-01-07T22:10:56;64144.94;;;-143.47;100.00
85191;BME280;75560;0.000;0.000;2024-01-07T22:13:22;64144.94;;;-143.47;100.00
85191;BME280;75560;0.000;0.000;2024-01-07T22:15:47;64144.94;;;-143.47;100.00
85191;BME280;75560;0.000;0.000;2024-01-07T22:18:13;64144.94;;;-143.47;100.00
85191;BME280;75560;0.000;0.000;2024-01-07T22:20:38;64144.94;;;-143.47;100.00
85191;BME280;75560;0.000;0.000;2024-01-07T22:23:03;64144.94;;;-143.47;100.00
85191;BME280;75560;0.000;0.000;2024-01-07T22:25:29;64144.94;;;-143.47;100.00
85191;BME280;75560;0.000;0.000;2024-01-07T22:27:54;64144.94;;;-143.47;100.00
85191;BME280;75560;0.000;0.000;2024-01-07T22:30:19;64144.94;;;-143.47;100.00
85191;BME280;75560;0.000;0.000;2024-01-07T22:32:45;64144.94;;;-143.47;100.00
85191;BME280;75560;0.000;0.000;2024-01-07T22:35:11;64144.94;;;-143.47;100.00
85191;BME280;75560;0.000;0.000;2024-01-07T22:37:37;64144.94;;;-143.47;100.00
85191;BME280;75560;0.000;0.000;2024-01-07T22:40:04;64144.94;;;-143.47;100.00
85191;BME280;75560;0.000;0.000;2024-01-07T22:42:29;64144.94;;;-143.47;100.00
85191;BME280;75560;0.000;0.000;2024-01-07T22:44:55;64144.94;;;-143.47;100.00
85191;BME280;75560;0.000;0.000;2024-01-07T22:47:20;64144.94;;;-143.47;100.00
85191;BME280;75560;0.000;0.000;2024-01-07T22:49:45;64144.94;;;-143.47;100.00
85191;BME280;75560;0.000;0.000;2024-01-07T22:52:12;64144.94;;;-143.47;100.00
85191;BME280;75560;0.000;0.000;2024-01-07T22:54:38;64144.94;;;-143.47;100.00
85191;BME280;75560;0.000;0.000;2024-01-07T22:57:04;64144.94;;;-143.47;100.00
85191;BME280;75560;0.000;0.000;2024-01-07T22:59:30;64144.94;;;-143.47;100.00
85191;BME280;75560;0.000;0.000;2024-01-07T23:01:58;64144.94;;;-143.47;100.00
85191;BME280;75560;0.000;0.000;2024-01-07T23:04:23;64144.94;;;-143.47;100.00
85191;BME280;75560;0.000;0.000;2024-01-07T23:06:48;64144.94;;;-143.47;100.00
85191;BME280;75560;0.000;0.000;2024-01-07T23:09:14;64144.94;;;-143.47;100.00
85191;BME280;75560;0.000;0.000;2024-01-07T23:11:39;64144.94;;;-143.47;100.00
85191;BME280;75560;0.000;0.000;2024-01-07T23:14:05;64144.94;;;-143.47;100.00
85191;BME280;75560;0.000;0.000;2024-01-07T23:16:30;64144.94;;;-143.47;100.00
85191;BME280;75560;0.000;0.000;2024-01-07T23:18:56;64144.94;;;-143.47;100.00
85191;BME280;75560;0.000;0.000;2024-01-07T23:21:21;64144.94;;;-143.47;100.00
85191;BME280;75560;0.000;0.000;2024-01-07T23:23:48;64144.94;;;-143.47;100.00
85191;BME280;75560;0.000;0.000;2024-01-07T23:26:14;64144.94;;;-143.47;100.00
85191;BME280;75560;0.000;0.000;2024-01-07T23:28:39;64144.94;;;-143.47;100.00
85191;BME280;75560;0.000;0.000;2024-01-07T23:31:05;64144.94;;;-143.47;100.00
85191;BME280;75560;0.000;0.000;2024-01-07T23:33:30;64144.94;;;-143.47;100.00
85191;BME280;75560;0.000;0.000;2024-01-07T23:35:55;64144.94;;;-143.47;100.00
85191;BME280;75560;0.000;0.000;2024-01-07T23:38:21;64144.94;;;-143.47;100.00
85191;BME280;75560;0.000;0.000;2024-01-07T23:40:46;64144.94;;;-143.47;100.00
85191;BME280;75560;0.000;0.000;2024-01-07T23:43:12;64144.94;;;-143.47;100.00
85191;BME280;75560;0.000;0.000;2024-01-07T23:45:37;64144.94;;;-143.47;100.00
85191;BME280;75560;0.000;0.000;2024-01-07T23:48:04;64144.94;;;-143.47;100.00
85191;BME280;75560;0.000;0.000;2024-01-07T23:50:29;64144.94;;;-143.47;100.00
85191;BME280;75560;0.000;0.000;2024-01-07T23:52:55;64144.94;;;-143.47;100.00
85191;BME280;75560;0.000;0.000;2024-01-07T23:55:20;64144.94;;;-143.47;100.00
85191;BME280;75560;0.000;0.000;2024-01-07T23:57:45;64144.94;;;-143.47;100.00
